Time;durP1;ratioP1;P1;durP2;ratioP2;P2;SDS_P1;SDS_P2;PMS_P1;PMS_P2;Temp;Humidity;BMP_temperature;BMP_pressure;BME280_temperature;BME280_humidity;BME280_pressure;Samples;Min_cycle;Max_cycle;Signal;HPM_P1;HPM_P2
2023/03/01 00:01:50;;;;;;;0.38;0.38;;;;;;;20.57;48.95;101724.38;7398992;19;20018;-59
2023/03/01 00:04:16;;;;;;;3.65;0.57;;;;;;;21.02;48.62;101719.88;7401249;19;20339;-59
2023/03/01 00:06:45;;;;;;;0.40;0.40;;;;;;;20.38;49.13;101721.06;7399849;19;20023;-59
2023/03/01 00:09:15;;;;;;;15.20;1.00;;;;;;;20.08;50.43;101725.34;7401088;19;20015;-59
2023/03/01 00:11:41;;;;;;;1.58;1.30;;;;;;;20.53;50.18;101720.22;7400191;19;20019;-59
2023/03/01 00:14:08;;;;;;;2.83;1.00;;;;;;;20.57;49.82;101732.06;7400155;19;20027;-60
2023/03/01 00:16:40;;;;;;;2.50;0.65;;;;;;;21.06;49.34;101724.06;7399309;19;20006;-60
2023/03/01 00:19:11;;;;;;;3.25;0.98;;;;;;;20.52;49.71;101725.09;7397483;19;20011;-60
2023/03/01 00:21:37;;;;;;;0.40;0.40;;;;;;;21.05;48.90;101724.56;7399057;19;20014;-60
2023/03/01 00:24:04;;;;;;;2.65;1.23;;;;;;;21.34;47.92;101712.13;7389946;19;20017;-60
2023/03/01 00:26:30;;;;;;;0.73;0.60;;;;;;;21.17;47.80;101723.34;7403350;19;20014;-60
2023/03/01 00:28:58;;;;;;;0.52;0.38;;;;;;;20.85;47.80;101719.75;7399997;19;20041;-60
2023/03/01 00:31:27;;;;;;;0.50;0.50;;;;;;;21.29;47.43;101729.88;7400959;19;20463;-60
2023/03/01 00:33:58;;;;;;;0.45;0.45;;;;;;;20.31;48.86;101732.06;7398919;19;20504;-60
2023/03/01 00:36:28;;;;;;;3.50;1.33;;;;;;;21.05;47.78;101730.97;7397524;19;20365;-60
2023/03/01 00:38:55;;;;;;;0.65;0.55;;;;;;;21.26;47.69;101734.50;7399976;19;20021;-60
2023/03/01 00:41:22;;;;;;;0.32;0.32;;;;;;;21.48;47.42;101731.03;7398880;19;20501;-60
2023/03/01 00:43:49;;;;;;;0.63;0.63;;;;;;;21.78;46.67;101732.22;7396857;19;20015;-60
2023/03/01 00:46:19;;;;;;;0.52;0.52;;;;;;;21.68;46.20;101728.03;7396784;19;20014;-60
2023/03/01 00:48:46;;;;;;;0.40;0.40;;;;;;;21.77;45.65;101722.16;7397903;19;20015;-60
2023/03/01 00:51:22;;;;;;;0.63;0.35;;;;;;;21.75;45.79;101719.06;7396593;19;20014;-60
2023/03/01 00:53:57;;;;;;;0.82;0.65;;;;;;;21.79;45.30;101720.38;7397852;19;20462;-60
2023/03/01 00:56:25;;;;;;;0.63;0.30;;;;;;;21.78;44.95;101712.38;7397683;19;20367;-60
2023/03/01 00:58:51;;;;;;;1.20;0.25;;;;;;;22.65;43.99;101712.41;7395729;19;20082;-60
2023/03/01 01:01:22;;;;;;;0.77;0.77;;;;;;;25.33;42.12;101709.44;7396535;19;20010;-60
2023/03/01 01:03:51;;;;;;;0.30;0.30;;;;;;;22.61;42.34;101706.97;7394298;19;20078;-60
2023/03/01 01:06:21;;;;;;;0.68;0.52;;;;;;;21.96;43.32;101711.94;7396369;19;20014;-60
2023/03/01 01:08:48;;;;;;;0.40;0.40;;;;;;;22.20;42.66;101705.88;7397721;19;20010;-60
2023/03/01 01:11:14;;;;;;;0.70;0.70;;;;;;;21.99;42.78;101702.44;7396157;19;20011;-60
2023/03/01 01:13:41;;;;;;;0.45;0.45;;;;;;;22.16;42.67;101700.41;7395474;19;20368;-60
2023/03/01 01:16:08;;;;;;;0.45;0.45;;;;;;;22.57;41.90;101693.00;7396030;19;20030;-60
2023/03/01 01:18:42;;;;;;;0.95;0.70;;;;;;;22.27;42.10;101691.94;7397011;19;20362;-60
2023/03/01 01:21:19;;;;;;;0.70;0.70;;;;;;;21.89;42.17;101692.59;7400981;19;20080;-60
2023/03/01 01:23:47;;;;;;;0.30;0.30;;;;;;;21.28;42.74;101694.31;7392958;19;20018;-60
2023/03/01 01:26:28;;;;;;;0.32;0.20;;;;;;;20.78;43.42;101696.75;7395579;19;20018;-60
2023/03/01 01:28:54;;;;;;;;;;;;;;;20.93;43.77;101700.22;7398886;19;20066;-60
2023/03/01 01:31:23;;;;;;;1.55;1.45;;;;;;;20.60;44.36;101688.59;7394676;19;19926;-60
2023/03/01 01:33:50;;;;;;;0.20;0.20;;;;;;;20.41;45.03;101688.16;7397280;19;20014;-60
2023/03/01 01:36:17;;;;;;;1.38;0.80;;;;;;;20.72;43.92;101693.88;7395604;19;20018;-60
2023/03/01 01:38:44;;;;;;;0.75;0.75;;;;;;;19.54;46.66;101698.69;7396905;19;20027;-60
2023/03/01 01:41:12;;;;;;;0.68;0.63;;;;;;;20.98;45.23;101688.16;7397319;19;20041;-60
2023/03/01 01:43:44;;;;;;;0.30;0.30;;;;;;;23.11;43.71;101692.75;7394347;19;20031;-60
2023/03/01 01:46:31;;;;;;;1.52;0.68;;;;;;;26.33;39.78;101686.91;7394642;19;20324;-60
2023/03/01 01:49:11;;;;;;;1.23;0.90;;;;;;;23.96;39.90;101681.41;7394583;19;20014;-60
2023/03/01 01:51:41;;;;;;;2.65;0.77;;;;;;;22.84;41.59;101673.69;7394043;19;20011;-60
2023/03/01 01:54:18;;;;;;;0.65;0.65;;;;;;;24.57;39.33;101673.28;7396831;19;20023;-59
2023/03/01 01:56:51;;;;;;;0.40;0.40;;;;;;;27.63;36.38;101657.13;7394827;19;20018;-60
2023/03/01 01:59:17;;;;;;;0.40;0.40;;;;;;;26.13;36.69;101650.38;7394834;19;20066;-60
2023/03/01 02:01:43;;;;;;;0.40;0.40;;;;;;;21.92;41.61;101651.84;7393040;19;20022;-60
2023/03/01 02:04:10;;;;;;;0.60;0.60;;;;;;;24.43;39.97;101650.88;7395606;19;20021;-60
2023/03/01 02:06:44;;;;;;;0.73;0.73;;;;;;;26.52;36.83;101641.19;7394056;19;20388;-60
2023/03/01 02:09:13;;;;;;;3.92;0.65;;;;;;;26.83;36.57;101643.25;7394522;19;20021;-60
2023/03/01 02:11:40;;;;;;;0.40;0.40;;;;;;;22.35;41.25;101650.38;7395504;19;20014;-60
2023/03/01 02:14:06;;;;;;;0.75;0.75;;;;;;;17.49;48.91;101659.59;7397526;19;20022;-59
2023/03/01 02:16:32;;;;;;;3.38;0.77;;;;;;;16.98;51.71;101654.88;7395545;19;20022;-60
2023/03/01 02:18:59;;;;;;;0.38;0.38;;;;;;;17.11;52.94;101644.16;7394070;19;20006;-60
2023/03/01 02:21:50;;;;;;;0.45;0.38;;;;;;;16.59;55.33;101639.84;7394586;19;20031;-60
2023/03/01 02:24:54;;;;;;;2.73;0.57;;;;;;;15.74;58.13;101634.50;7395936;19;20011;-60
2023/03/01 02:27:28;;;;;;;0.52;0.52;;;;;;;14.43;64.39;101649.53;7395491;19;20029;-60
2023/03/01 02:29:54;;;;;;;1.50;1.02;;;;;;;15.00;72.86;101646.06;7394775;19;20002;-60
2023/03/01 02:32:24;;;;;;;0.28;0.28;;;;;;;15.10;67.50;101647.66;7394930;19;20031;-60
2023/03/01 02:34:53;;;;;;;0.10;0.10;;;;;;;16.02;67.51;101643.72;7398091;19;20018;-60
2023/03/01 02:37:24;;;;;;;1.05;0.68;;;;;;;17.20;65.25;101640.50;7393561;19;20760;-60
2023/03/01 02:39:57;;;;;;;0.40;0.40;;;;;;;16.33;65.02;101641.47;7396622;19;20014;-59
2023/03/01 02:42:31;;;;;;;0.40;0.40;;;;;;;15.47;68.84;101642.13;7395547;19;20355;-60
2023/03/01 02:44:57;;;;;;;0.60;0.55;;;;;;;18.79;59.49;101630.81;7397076;19;20388;-60
2023/03/01 02:47:23;;;;;;;1.92;0.77;;;;;;;16.70;61.45;101644.97;7393002;19;20022;-60
2023/03/01 02:49:50;;;;;;;0.52;0.47;;;;;;;16.82;62.07;101632.75;7392348;19;20023;-60
2023/03/01 02:52:22;;;;;;;0.80;0.60;;;;;;;15.76;64.51;101628.44;7392679;19;20033;-60
2023/03/01 02:55:00;;;;;;;0.45;0.45;;;;;;;16.19;63.74;101636.50;7396590;19;20014;-60
2023/03/01 02:57:29;;;;;;;0.50;0.50;;;;;;;15.97;64.52;101627.47;7394021;19;20018;-60
2023/03/01 02:59:59;;;;;;;8.95;0.63;;;;;;;16.05;64.89;101625.91;7392204;19;20015;-59
2023/03/01 03:02:38;;;;;;;0.30;0.20;;;;;;;16.18;64.42;101620.09;7389541;19;20025;-60
2023/03/01 03:05:21;;;;;;;2.00;0.45;;;;;;;15.94;64.30;101619.97;7395544;19;20324;-60
2023/03/01 03:07:50;;;;;;;0.20;0.20;;;;;;;16.56;62.52;101609.88;7392403;19;20015;-60
2023/03/01 03:10:30;;;;;;;0.30;0.30;;;;;;;16.09;64.39;101618.06;7396525;19;20013;-60
2023/03/01 03:13:06;;;;;;;0.87;0.53;;;;;;;18.42;59.49;101614.75;7396564;19;20362;-60
2023/03/01 03:15:36;;;;;;;1.02;0.57;;;;;;;16.31;62.07;101610.22;7395410;19;20231;-60
2023/03/01 03:18:04;;;;;;;0.52;0.52;;;;;;;15.50;66.50;101608.31;7393071;19;20015;-60
2023/03/01 03:20:31;;;;;;;2.30;0.95;;;;;;;15.29;67.75;101608.41;7396319;19;20467;-60
2023/03/01 03:22:58;;;;;;;1.42;0.80;;;;;;;15.41;68.07;101611.06;7392012;19;20455;-60
2023/03/01 03:25:28;;;;;;;0.22;0.22;;;;;;;14.85;72.55;101614.22;7396904;19;20006;-60
2023/03/01 03:27:56;;;;;;;;;;;;;;;15.10;72.97;101607.56;7393162;19;20035;-59
2023/03/01 03:30:25;;;;;;;0.50;0.50;;;;;;;14.77;78.14;101612.91;7392633;19;19918;-59
2023/03/01 03:32:54;;;;;;;1.05;0.35;;;;;;;14.26;77.19;101608.91;7393182;19;20015;-59
2023/03/01 03:35:32;;;;;;;0.20;0.20;;;;;;;14.88;76.01;101615.28;7397183;19;20015;-59
2023/03/01 03:38:03;;;;;;;1.80;0.73;;;;;;;15.71;72.94;101606.56;7391282;19;20018;-59
2023/03/01 03:40:31;;;;;;;0.20;0.20;;;;;;;15.50;73.04;101604.69;7397486;19;20038;-60
2023/03/01 03:42:57;;;;;;;0.60;0.30;;;;;;;14.56;76.84;101608.16;7395468;19;20011;-59
2023/03/01 03:45:24;;;;;;;0.50;0.50;;;;;;;14.43;81.79;101593.47;7396957;19;20014;-59
2023/03/01 03:47:50;;;;;;;1.58;0.90;;;;;;;13.65;84.22;101599.16;7392595;19;20019;-59
2023/03/01 03:50:17;;;;;;;1.10;0.50;;;;;;;13.72;87.96;101600.13;7392533;19;20023;-59
2023/03/01 03:52:44;;;;;;;0.55;0.25;;;;;;;11.30;100.00;101604.44;7391868;19;20034;-59
2023/03/01 03:55:12;;;;;;;0.25;0.25;;;;;;;10.52;100.00;101600.00;7398386;19;20015;-59
2023/03/01 03:57:40;;;;;;;0.43;0.43;;;;;;;8.39;100.00;101612.63;7399115;19;20014;-59
2023/03/01 04:00:12;;;;;;;0.40;0.40;;;;;;;12.05;100.00;101598.38;7399181;19;20033;-59
2023/03/01 04:02:40;;;;;;;0.85;0.63;;;;;;;8.49;100.00;101600.56;7397969;19;20034;-59
2023/03/01 04:05:07;;;;;;;0.57;0.43;;;;;;;10.10;100.00;101595.31;7403777;19;20011;-59
2023/03/01 04:07:35;;;;;;;0.55;0.43;;;;;;;6.42;100.00;101590.44;7399802;19;20082;-59
2023/03/01 04:10:03;;;;;;;1.00;0.70;;;;;;;7.04;100.00;101593.13;7403337;19;20029;-59
2023/03/01 04:12:29;;;;;;;2.10;0.82;;;;;;;6.82;100.00;101589.75;7402613;19;20070;-59
2023/03/01 04:14:55;;;;;;;1.98;0.38;;;;;;;7.14;100.00;101586.72;7402258;19;20018;-59
2023/03/01 04:17:21;;;;;;;3.17;1.05;;;;;;;6.53;100.00;101582.06;7398107;19;20022;-59
2023/03/01 04:19:48;;;;;;;0.60;0.60;;;;;;;6.08;100.00;101579.19;7398613;19;20010;-59
2023/03/01 04:22:17;;;;;;;1.05;0.90;;;;;;;5.76;100.00;101584.00;7397858;19;20022;-59
2023/03/01 04:24:46;;;;;;;0.40;0.40;;;;;;;5.98;100.00;101577.25;7401186;19;20010;-59
2023/03/01 04:27:12;;;;;;;0.68;0.68;;;;;;;5.77;100.00;101579.28;7398838;19;20017;-59
2023/03/01 04:29:38;;;;;;;0.32;0.32;;;;;;;5.59;100.00;101576.56;7398954;19;20026;-59
2023/03/01 04:32:04;;;;;;;2.40;0.95;;;;;;;5.42;100.00;101579.38;7398738;19;20014;-59
2023/03/01 04:34:30;;;;;;;0.60;0.60;;;;;;;6.03;100.00;101576.84;7400390;19;20328;-59
2023/03/01 04:36:57;;;;;;;0.30;0.30;;;;;;;6.05;100.00;101568.91;7398539;19;20022;-59
2023/03/01 04:39:23;;;;;;;0.40;0.40;;;;;;;6.00;100.00;101568.53;7400278;19;20576;-59
2023/03/01 04:41:49;;;;;;;0.98;0.95;;;;;;;6.40;100.00;101567.13;7398862;19;20006;-59
2023/03/01 04:44:15;;;;;;;0.63;0.40;;;;;;;5.82;100.00;101576.13;7399076;19;20035;-59
2023/03/01 04:46:41;;;;;;;0.50;0.50;;;;;;;5.07;100.00;101581.03;7398559;19;20014;-59
2023/03/01 04:49:07;;;;;;;1.40;0.65;;;;;;;5.45;100.00;101584.13;7397983;19;20038;-59
2023/03/01 04:51:33;;;;;;;0.17;0.17;;;;;;;5.19;100.00;101577.06;7397938;19;20258;-59
2023/03/01 04:54:00;;;;;;;4.13;0.52;;;;;;;4.98;100.00;101577.88;7399514;19;20018;-59
2023/03/01 04:56:26;;;;;;;0.28;0.28;;;;;;;4.78;100.00;101579.47;7396766;19;20018;-59
2023/03/01 04:58:55;;;;;;;0.63;0.60;;;;;;;4.94;100.00;101579.06;7395784;19;20006;-59
2023/03/01 05:01:21;;;;;;;0.40;0.40;;;;;;;5.04;100.00;101575.53;7398322;19;20015;-59
2023/03/01 05:03:50;;;;;;;0.30;0.30;;;;;;;5.10;100.00;101569.19;7396679;19;20010;-59
2023/03/01 05:06:18;;;;;;;0.30;0.30;;;;;;;4.98;100.00;101566.06;7397064;19;20027;-59
2023/03/01 05:08:44;;;;;;;1.27;0.63;;;;;;;7.65;100.00;101558.84;7396920;19;20063;-59
2023/03/01 05:11:11;;;;;;;0.30;0.30;;;;;;;5.50;100.00;101556.09;7397078;19;20467;-59
2023/03/01 05:13:38;;;;;;;0.30;0.30;;;;;;;4.70;100.00;101566.84;7397074;19;20006;-59
2023/03/01 05:16:06;;;;;;;0.95;0.90;;;;;;;5.47;100.00;101554.91;7395846;19;20373;-59
2023/03/01 05:18:33;;;;;;;0.35;0.35;;;;;;;4.21;100.00;101567.56;7396162;19;20010;-59
2023/03/01 05:21:08;;;;;;;0.40;0.40;;;;;;;3.84;100.00;101569.81;7400697;19;20014;-59
2023/03/01 05:23:35;;;;;;;0.60;0.55;;;;;;;3.87;100.00;101574.56;7395640;19;20014;-59
2023/03/01 05:26:03;;;;;;;0.25;0.25;;;;;;;3.82;100.00;101575.72;7396934;19;20015;-59
2023/03/01 05:28:30;;;;;;;1.10;0.38;;;;;;;5.58;100.00;101566.72;7397445;19;20017;-59
2023/03/01 05:30:57;;;;;;;0.50;0.50;;;;;;;4.83;100.00;101570.00;7396749;19;20034;-59
2023/03/01 05:33:24;;;;;;;0.22;0.22;;;;;;;4.78;100.00;101567.63;7396679;19;20048;-59
2023/03/01 05:35:52;;;;;;;0.28;0.28;;;;;;;5.38;100.00;101566.38;7396368;19;20475;-59
2023/03/01 05:38:19;;;;;;;1.30;0.22;;;;;;;3.87;100.00;101569.06;7396800;19;20025;-59
2023/03/01 05:40:47;;;;;;;0.30;0.30;;;;;;;5.12;100.00;101566.03;7395917;19;20007;-59
2023/03/01 05:43:15;;;;;;;0.35;0.35;;;;;;;4.26;100.00;101572.72;7399152;19;20011;-59
2023/03/01 05:45:42;;;;;;;0.95;0.95;;;;;;;7.64;100.00;101556.50;7396197;19;20019;-59
2023/03/01 05:48:10;;;;;;;0.20;0.20;;;;;;;8.39;100.00;101552.34;7395066;19;20010;-59
2023/03/01 05:50:39;;;;;;;0.47;0.47;;;;;;;9.99;100.00;101551.00;7395625;19;20037;-59
2023/03/01 05:53:14;;;;;;;0.47;0.47;;;;;;;10.13;100.00;101556.31;7395319;19;20015;-59
2023/03/01 05:55:42;;;;;;;0.30;0.30;;;;;;;7.37;100.00;101564.72;7396193;19;20042;-59
2023/03/01 05:58:14;;;;;;;0.30;0.30;;;;;;;8.62;100.00;101565.47;7395703;19;20034;-59
2023/03/01 06:00:41;;;;;;;0.32;0.32;;;;;;;6.64;100.00;101566.19;7395330;19;20034;-59
2023/03/01 06:03:10;;;;;;;1.08;0.40;;;;;;;10.39;100.00;101560.09;7393722;19;20010;-59
2023/03/01 06:05:37;;;;;;;0.20;0.20;;;;;;;9.82;100.00;101569.66;7394814;19;20019;-59
2023/03/01 06:08:07;;;;;;;0.30;0.30;;;;;;;7.68;100.00;101567.53;7393693;19;20010;-59
2023/03/01 06:10:33;;;;;;;0.20;0.20;;;;;;;7.98;100.00;101570.34;7394268;19;20022;-59
2023/03/01 06:12:59;;;;;;;0.30;0.30;;;;;;;7.95;100.00;101565.63;7396365;19;20014;-59
2023/03/01 06:15:25;;;;;;;0.28;0.28;;;;;;;9.51;100.00;101570.25;7397979;19;20015;-59
2023/03/01 06:17:55;;;;;;;1.75;1.17;;;;;;;9.09;100.00;101563.50;7389146;19;20041;-59
2023/03/01 06:20:23;;;;;;;0.40;0.40;;;;;;;10.07;100.00;101563.53;7396914;19;20332;-59
2023/03/01 06:22:49;;;;;;;0.40;0.40;;;;;;;10.21;100.00;101557.72;7393913;19;20021;-59
2023/03/01 06:25:19;;;;;;;3.25;0.93;;;;;;;11.18;100.00;101563.31;7399328;19;20463;-59
2023/03/01 06:27:45;;;;;;;1.90;0.47;;;;;;;11.38;100.00;101561.19;7395122;19;20034;-59
2023/03/01 06:30:15;;;;;;;1.63;1.00;;;;;;;12.31;100.00;101560.09;7394603;19;20010;-58
2023/03/01 06:32:44;;;;;;;0.40;0.40;;;;;;;12.45;100.00;101562.47;7394141;19;20490;-58
2023/03/01 06:35:12;;;;;;;0.63;0.63;;;;;;;11.78;100.00;101562.47;7397665;19;20451;-58
2023/03/01 06:37:39;;;;;;;0.88;0.57;;;;;;;13.41;100.00;101567.22;7394477;19;20026;-58
2023/03/01 06:40:07;;;;;;;0.22;0.22;;;;;;;11.84;100.00;101565.50;7398572;19;20103;-58
2023/03/01 06:42:35;;;;;;;0.30;0.30;;;;;;;12.88;100.00;101565.47;7394527;19;20018;-58
2023/03/01 06:45:02;;;;;;;0.82;0.80;;;;;;;13.37;100.00;101563.78;7396585;19;20424;-59
2023/03/01 06:47:28;;;;;;;1.17;0.50;;;;;;;11.85;100.00;101567.06;7394134;19;20347;-59
2023/03/01 06:49:54;;;;;;;1.48;0.73;;;;;;;11.97;100.00;101569.91;7393958;19;20015;-58
2023/03/01 06:52:20;;;;;;;0.80;0.80;;;;;;;10.79;100.00;101569.88;7393603;19;20007;-58
2023/03/01 06:54:47;;;;;;;4.88;0.47;;;;;;;10.86;100.00;101577.28;7395834;19;20021;-59
2023/03/01 06:57:13;;;;;;;0.50;0.50;;;;;;;11.41;100.00;101563.88;7393463;19;20018;-59
2023/03/01 06:59:39;;;;;;;0.20;0.20;;;;;;;14.90;94.33;101563.09;7393490;19;20106;-58
2023/03/01 07:02:05;;;;;;;2.50;1.10;;;;;;;13.18;94.22;101564.84;7393421;19;20566;-58
2023/03/01 07:04:31;;;;;;;0.40;0.40;;;;;;;12.09;100.00;101569.13;7396221;19;20010;-59
2023/03/01 07:06:58;;;;;;;0.50;0.50;;;;;;;13.02;100.00;101570.56;7393821;19;20015;-58
2023/03/01 07:09:24;;;;;;;1.23;0.50;;;;;;;12.56;100.00;101571.31;7396160;19;20070;-58
2023/03/01 07:11:50;;;;;;;0.43;0.43;;;;;;;12.25;100.00;101565.47;7395366;19;20007;-59
2023/03/01 07:14:16;;;;;;;0.20;0.20;;;;;;;12.70;100.00;101570.84;7395348;19;20010;-58
2023/03/01 07:16:43;;;;;;;1.00;0.70;;;;;;;12.02;100.00;101576.94;7392575;19;20042;-59
2023/03/01 07:19:09;;;;;;;0.80;0.80;;;;;;;12.00;100.00;101571.78;7393334;19;20011;-59
2023/03/01 07:21:35;;;;;;;0.85;0.73;;;;;;;11.97;100.00;101571.91;7393657;19;20015;-59
2023/03/01 07:24:01;;;;;;;0.57;0.32;;;;;;;11.99;100.00;101567.44;7392909;19;20029;-59
2023/03/01 07:26:27;;;;;;;3.15;1.05;;;;;;;12.41;100.00;101568.16;7393104;19;20010;-58
2023/03/01 07:28:53;;;;;;;0.30;0.30;;;;;;;12.21;100.00;101569.59;7392170;19;20007;-58
2023/03/01 07:31:20;;;;;;;1.92;1.17;;;;;;;15.45;96.53;101571.63;7398164;19;20014;-58
2023/03/01 07:33:46;;;;;;;0.50;0.50;;;;;;;14.03;92.94;101570.19;7400654;19;20011;-58
2023/03/01 07:36:12;;;;;;;1.15;0.77;;;;;;;14.09;91.20;101560.72;7400445;19;20042;-58
2023/03/01 07:38:38;;;;;;;0.90;0.35;;;;;;;7.39;100.00;101573.41;7401668;19;20022;-58
2023/03/01 07:41:05;;;;;;;5.35;0.73;;;;;;;6.85;100.00;101571.53;7399906;19;20479;-58
2023/03/01 07:43:32;;;;;;;0.73;0.63;;;;;;;8.41;100.00;101582.44;7397699;19;20355;-58
2023/03/01 07:46:00;;;;;;;0.50;0.50;;;;;;;7.26;100.00;101580.66;7399742;19;20477;-58
2023/03/01 07:48:27;;;;;;;0.65;0.55;;;;;;;8.35;100.00;101578.59;7399781;19;20021;-58
2023/03/01 07:50:53;;;;;;;3.95;1.05;;;;;;;6.65;100.00;101587.09;7400537;19;20014;-59
2023/03/01 07:53:19;;;;;;;0.80;0.80;;;;;;;6.21;100.00;101576.75;7399919;19;20015;-59
2023/03/01 07:55:45;;;;;;;2.60;1.23;;;;;;;7.72;100.00;101574.63;7398278;19;20488;-59
2023/03/01 07:58:12;;;;;;;0.50;0.50;;;;;;;6.21;100.00;101581.47;7399389;19;20530;-59
2023/03/01 08:00:38;;;;;;;0.28;0.28;;;;;;;5.96;100.00;101582.38;7400421;19;20076;-59
2023/03/01 08:03:04;;;;;;;2.05;0.70;;;;;;;5.71;100.00;101580.88;7396671;19;20388;-59
2023/03/01 08:05:30;;;;;;;0.98;0.90;;;;;;;5.77;100.00;101580.06;7404064;19;20015;-59
2023/03/01 08:07:56;;;;;;;0.20;0.20;;;;;;;5.95;100.00;101575.31;7398199;19;20022;-59
2023/03/01 08:10:23;;;;;;;0.30;0.30;;;;;;;5.93;100.00;101576.88;7402929;19;20010;-59
2023/03/01 08:12:52;;;;;;;0.68;0.60;;;;;;;5.80;100.00;101579.28;7402615;19;20006;-59
2023/03/01 08:15:18;;;;;;;1.30;1.15;;;;;;;6.19;100.00;101573.59;7402917;19;20047;-59
2023/03/01 08:17:45;;;;;;;0.30;0.30;;;;;;;7.30;100.00;101570.31;7399203;19;20018;-59
2023/03/01 08:20:12;;;;;;;0.20;0.20;;;;;;;11.90;100.00;101556.16;7401000;19;20014;-59
2023/03/01 08:22:38;;;;;;;1.10;0.40;;;;;;;12.91;100.00;101570.13;7397593;19;20045;-59
2023/03/01 08:25:05;;;;;;;0.60;0.60;;;;;;;12.68;100.00;101571.28;7401675;19;20035;-59
2023/03/01 08:27:31;;;;;;;0.35;0.35;;;;;;;11.36;100.00;101585.94;7396646;19;20070;-59
2023/03/01 08:29:57;;;;;;;12.35;2.08;;;;;;;12.53;100.00;101574.97;7397976;19;20002;-59
2023/03/01 08:32:23;;;;;;;0.32;0.32;;;;;;;12.71;100.00;101580.81;7398150;19;20010;-59
2023/03/01 08:34:49;;;;;;;0.40;0.40;;;;;;;12.34;100.00;101581.56;7400848;19;20354;-59
2023/03/01 08:37:15;;;;;;;0.90;0.20;;;;;;;13.95;100.00;101588.47;7397602;19;20015;-59
2023/03/01 08:39:41;;;;;;;1.17;0.65;;;;;;;12.24;100.00;101577.06;7397370;19;20019;-59
2023/03/01 08:42:08;;;;;;;0.35;0.35;;;;;;;13.77;100.00;101577.16;7400944;19;20018;-59
2023/03/01 08:44:34;;;;;;;0.52;0.52;;;;;;;14.18;100.00;101576.81;7400658;19;20094;-59
2023/03/01 08:47:02;;;;;;;0.20;0.20;;;;;;;16.15;100.00;101568.44;7401093;19;20017;-59
2023/03/01 08:49:28;;;;;;;0.65;0.65;;;;;;;13.56;100.00;101576.69;7401558;19;20023;-59
2023/03/01 08:51:54;;;;;;;0.30;0.30;;;;;;;13.99;100.00;101575.16;7401672;19;20076;-59
2023/03/01 08:54:21;;;;;;;0.10;0.10;;;;;;;13.52;100.00;101578.06;7401275;19;20455;-59
2023/03/01 08:56:48;;;;;;;0.40;0.40;;;;;;;13.05;100.00;101580.88;7397015;19;20467;-59
2023/03/01 08:59:17;;;;;;;0.43;0.43;;;;;;;13.12;100.00;101580.66;7397929;19;20015;-59
2023/03/01 09:01:43;;;;;;;0.40;0.40;;;;;;;14.04;100.00;101577.34;7397461;19;20027;-59
2023/03/01 09:04:10;;;;;;;1.45;0.63;;;;;;;15.18;93.59;101570.31;7396848;19;20372;-59
2023/03/01 09:06:37;;;;;;;0.35;0.35;;;;;;;14.61;100.00;101573.94;7396842;19;20048;-59
2023/03/01 09:09:05;;;;;;;0.20;0.20;;;;;;;14.06;100.00;101569.25;7397510;19;20011;-59
2023/03/01 09:11:31;;;;;;;0.63;0.60;;;;;;;17.73;89.97;101559.72;7393631;19;20021;-61
2023/03/01 09:13:57;;;;;;;0.50;0.50;;;;;;;16.79;91.17;101562.56;7397054;19;20023;-60
2023/03/01 09:16:23;;;;;;;0.25;0.25;;;;;;;14.96;93.37;101569.69;7399615;19;20015;-60
2023/03/01 09:18:52;;;;;;;1.95;0.20;;;;;;;13.76;100.00;101562.38;7396099;19;20011;-60
2023/03/01 09:21:20;;;;;;;0.43;0.43;;;;;;;13.52;100.00;101564.84;7395173;19;20010;-60
2023/03/01 09:23:47;;;;;;;1.00;0.30;;;;;;;12.90;100.00;101566.56;7394998;19;20014;-60
2023/03/01 09:26:16;;;;;;;0.40;0.25;;;;;;;12.49;100.00;101565.94;7396670;19;20015;-60
2023/03/01 09:28:44;;;;;;;8.48;0.50;;;;;;;11.80;100.00;101562.81;7397369;19;20043;-60
2023/03/01 09:31:14;;;;;;;2.85;0.55;;;;;;;10.87;100.00;101567.72;7395049;19;20459;-60
2023/03/01 09:33:42;;;;;;;0.20;0.20;;;;;;;9.99;100.00;101573.28;7396468;19;20038;-60
2023/03/01 09:36:12;;;;;;;0.20;0.20;;;;;;;9.37;100.00;101576.09;7394909;19;20523;-60
2023/03/01 09:38:39;;;;;;;0.13;0.13;;;;;;;12.55;100.00;101564.13;7397241;19;20038;-60
2023/03/01 09:41:21;;;;;;;0.20;0.20;;;;;;;10.88;100.00;101577.63;7396329;19;20030;-60
2023/03/01 09:43:55;;;;;;;0.20;0.20;;;;;;;9.42;100.00;101572.84;7394834;19;20007;-60
2023/03/01 09:46:24;;;;;;;0.30;0.30;;;;;;;8.46;100.00;101575.66;7395351;19;20025;-60
2023/03/01 09:49:09;;;;;;;0.10;0.10;;;;;;;7.92;100.00;101572.78;7397745;19;20022;-60
2023/03/01 09:51:36;;;;;;;0.30;0.30;;;;;;;9.67;100.00;101556.44;7398088;19;20602;-60
2023/03/01 09:54:04;;;;;;;0.20;0.20;;;;;;;9.54;100.00;101553.53;7396160;19;20019;-60
2023/03/01 09:56:41;;;;;;;0.28;0.28;;;;;;;8.36;100.00;101547.63;7397899;19;20031;-60
2023/03/01 09:59:39;;;;;;;0.43;0.25;;;;;;;9.70;100.00;101534.13;7397892;19;20015;-60
2023/03/01 10:02:14;;;;;;;0.22;0.22;;;;;;;9.13;100.00;101540.00;7398020;19;20014;-61
2023/03/01 10:04:48;;;;;;;0.95;0.63;;;;;;;11.05;100.00;101523.41;7397305;19;20015;-60
2023/03/01 10:07:43;;;;;;;0.13;0.10;;;;;;;10.23;100.00;101516.28;7398288;19;20018;-60
2023/03/01 10:10:38;;;;;;;0.40;0.40;;;;;;;12.40;100.00;101524.69;7397836;19;20017;-60
2023/03/01 10:13:10;;;;;;;0.30;0.30;;;;;;;10.58;100.00;101515.47;7396572;19;20025;-60
2023/03/01 10:15:43;;;;;;;0.10;0.10;;;;;;;10.27;100.00;101514.22;7396025;19;20014;-60
2023/03/01 10:18:17;;;;;;;1.27;0.75;;;;;;;8.91;100.00;101504.69;7400535;19;20015;-60
2023/03/01 10:21:01;;;;;;;0.50;0.50;;;;;;;8.09;100.00;101512.72;7399614;19;20022;-60
2023/03/01 10:23:32;;;;;;;0.90;0.80;;;;;;;8.35;100.00;101507.19;7393240;19;20025;-60
2023/03/01 10:26:10;;;;;;;0.20;0.20;;;;;;;9.42;100.00;101506.13;7394205;19;20467;-60
2023/03/01 10:28:49;;;;;;;0.40;0.30;;;;;;;8.80;100.00;101502.09;7393878;19;20015;-60
2023/03/01 10:31:21;;;;;;;0.55;0.32;;;;;;;8.92;100.00;101493.13;7394701;19;20025;-60
2023/03/01 10:33:51;;;;;;;0.20;0.20;;;;;;;12.00;100.00;101485.22;7394710;19;20324;-60
2023/03/01 10:36:17;;;;;;;0.15;0.15;;;;;;;11.17;100.00;101504.00;7393207;19;20015;-59
2023/03/01 10:38:54;;;;;;;0.20;0.20;;;;;;;10.93;100.00;101490.69;7394526;19;20089;-60
2023/03/01 10:41:25;;;;;;;0.13;0.13;;;;;;;12.05;100.00;101481.91;7394692;19;20014;-60
2023/03/01 10:43:59;;;;;;;0.30;0.28;;;;;;;9.98;100.00;101493.78;7394110;19;20003;-60
2023/03/01 10:46:30;;;;;;;0.20;0.20;;;;;;;10.00;100.00;101488.56;7394130;19;20015;-60
2023/03/01 10:49:20;;;;;;;0.22;0.20;;;;;;;11.49;100.00;101482.78;7393739;19;20015;-60
2023/03/01 10:51:49;;;;;;;0.32;0.20;;;;;;;12.65;100.00;101479.16;7393585;19;20049;-60
2023/03/01 10:54:19;;;;;;;0.20;0.20;;;;;;;11.24;100.00;101484.25;7394991;19;20078;-60
2023/03/01 10:56:52;;;;;;;0.27;0.27;;;;;;;9.45;100.00;101483.00;7392688;19;20014;-60
2023/03/01 10:59:28;;;;;;;0.68;0.68;;;;;;;9.51;100.00;101470.94;7393099;19;20459;-60
2023/03/01 11:02:21;;;;;;;0.10;0.10;;;;;;;11.67;100.00;101469.91;7394095;19;20018;-60
2023/03/01 11:04:58;;;;;;;0.10;0.10;;;;;;;13.82;100.00;101470.19;7408295;19;20463;-60
2023/03/01 11:07:24;;;;;;;0.80;0.50;;;;;;;14.04;100.00;101470.88;7408167;19;20474;-60
2023/03/01 11:09:51;;;;;;;0.47;0.47;;;;;;;14.10;100.00;101455.03;7411328;19;20006;-60
2023/03/01 11:12:17;;;;;;;1.50;0.82;;;;;;;14.08;99.07;101454.72;7409327;19;20338;-60
2023/03/01 11:14:53;;;;;;;0.20;0.20;;;;;;;13.55;100.00;101462.38;7408052;19;20044;-60
2023/03/01 11:17:38;;;;;;;1.00;0.40;;;;;;;12.83;100.00;101462.56;7407336;19;20364;-60
2023/03/01 11:20:13;;;;;;;1.27;0.28;;;;;;;11.64;100.00;101462.38;7410017;19;20024;-60
2023/03/01 11:23:06;;;;;;;1.00;0.73;;;;;;;12.46;100.00;101449.47;7406894;19;20022;-60
2023/03/01 11:25:37;;;;;;;0.50;0.25;;;;;;;9.50;100.00;101463.03;7405725;19;20463;-60
2023/03/01 11:28:07;;;;;;;0.30;0.30;;;;;;;11.25;100.00;101454.38;7407755;19;20017;-60
2023/03/01 11:30:45;;;;;;;1.75;1.20;;;;;;;12.41;100.00;101447.25;7406913;19;20033;-59
2023/03/01 11:33:24;;;;;;;0.13;0.10;;;;;;;14.07;100.00;101436.34;7407328;19;20011;-59
2023/03/01 11:36:00;;;;;;;1.30;0.80;;;;;;;14.68;99.91;101452.28;7406569;19;20381;-59